Time;durP1;ratioP1;P1;durP2;ratioP2;P2;SDS_P1;SDS_P2;PMS_P1;PMS_P2;Temp;Humidity;BMP_temperature;BMP_pressure;BME280_temperature;BME280_humidity;BME280_pressure;Samples;Min_cycle;Max_cycle;Signal;HPM_P1;HPM_P2
2023/09/01 00:00:37;;;;;;;10.67;6.50;;;15.40;1.00;;;;;;4991982;28;20445;-77
2023/09/01 00:03:03;;;;;;;10.50;6.23;;;15.40;1.00;;;;;;4990748;28;20864;-74
2023/09/01 00:05:32;;;;;;;11.80;7.47;;;15.40;1.00;;;;;;4991384;28;20470;-75
2023/09/01 00:07:58;;;;;;;14.43;7.00;;;15.40;1.00;;;;;;4991962;28;20219;-77
2023/09/01 00:10:24;;;;;;;11.97;7.07;;;15.40;1.00;;;;;;4991785;28;20486;-75
2023/09/01 00:12:49;;;;;;;14.60;7.70;;;15.40;1.00;;;;;;4989510;28;20217;-75
2023/09/01 00:15:15;;;;;;;12.00;7.40;;;15.40;1.00;;;;;;4989996;28;20194;-75
2023/09/01 00:17:40;;;;;;;8.67;6.40;;;15.40;1.00;;;;;;4990380;28;20476;-79
2023/09/01 00:20:06;;;;;;;10.73;6.20;;;15.40;1.00;;;;;;4991494;28;20219;-73
2023/09/01 00:22:32;;;;;;;14.20;6.00;;;15.40;1.00;;;;;;4991313;28;20218;-75
2023/09/01 00:24:57;;;;;;;11.90;6.37;;;15.30;1.00;;;;;;4991867;28;21962;-76
2023/09/01 00:27:23;;;;;;;13.40;6.87;;;15.30;1.00;;;;;;4991204;28;20549;-76
2023/09/01 00:29:48;;;;;;;12.00;6.30;;;15.30;1.00;;;;;;4990086;28;20187;-76
2023/09/01 00:32:14;;;;;;;10.87;6.10;;;15.40;1.00;;;;;;4986869;28;20203;-73
2023/09/01 00:34:39;;;;;;;12.40;6.70;;;15.40;1.00;;;;;;4990235;28;20186;-75
2023/09/01 00:37:05;;;;;;;10.93;6.33;;;15.40;1.00;;;;;;4991956;28;20704;-76
2023/09/01 00:39:30;;;;;;;12.30;6.70;;;15.40;1.00;;;;;;4991633;28;20175;-76
2023/09/01 00:41:56;;;;;;;11.73;5.63;;;15.40;1.00;;;;;;4991964;28;20207;-77
2023/09/01 00:44:21;;;;;;;8.00;6.00;;;15.40;1.00;;;;;;4984575;28;20595;-78
2023/09/01 00:46:47;;;;;;;10.20;6.70;;;15.40;1.00;;;;;;4990246;28;20186;-75
2023/09/01 00:49:16;;;;;;;13.07;6.30;;;15.40;1.00;;;;;;4989375;28;20180;-75
2023/09/01 00:51:46;;;;;;;11.47;5.97;;;15.40;1.00;;;;;;5006045;28;20207;-76
2023/09/01 00:54:12;;;;;;;8.00;5.60;;;15.40;1.00;;;;;;4990214;28;20485;-75
2023/09/01 00:56:37;;;;;;;11.47;5.77;;;15.40;1.00;;;;;;4990688;28;20446;-75
2023/09/01 00:59:04;;;;;;;10.03;5.63;;;15.40;1.00;;;;;;4987255;28;20195;-75
2023/09/01 01:01:30;;;;;;;7.50;5.33;;;15.40;1.00;;;;;;4988339;28;20213;-75
2023/09/01 01:03:55;;;;;;;8.50;5.70;;;15.30;1.00;;;;;;4989873;28;20442;-75
2023/09/01 01:06:33;;;;;;;12.40;6.10;;;15.40;1.00;;;;;;4988005;28;20605;-76
2023/09/01 01:09:17;;;;;;;8.80;5.27;;;15.40;1.00;;;;;;4989801;28;20187;-76
2023/09/01 01:12:07;;;;;;;11.03;5.43;;;15.40;1.00;;;;;;4983280;28;20454;-76
2023/09/01 01:14:40;;;;;;;10.77;5.53;;;15.50;1.00;;;;;;4990692;28;20411;-75
2023/09/01 01:17:08;;;;;;;8.63;5.50;;;15.50;1.00;;;;;;4990424;28;20533;-76
2023/09/01 01:20:13;;;;;;;9.40;5.23;;;15.50;1.00;;;;;;4990181;28;20438;-76
2023/09/01 01:22:42;;;;;;;8.60;5.30;;;15.40;1.00;;;;;;4988378;28;20465;-77
2023/09/01 01:25:09;;;;;;;9.13;5.43;;;15.40;1.00;;;;;;4986278;28;20458;-73
2023/09/01 01:27:35;;;;;;;7.03;5.80;;;15.80;1.00;;;;;;4986625;28;20525;-76
2023/09/01 01:30:05;;;;;;;11.87;6.20;;;15.40;1.00;;;;;;4989057;28;20517;-75
2023/09/01 01:32:31;;;;;;;8.07;5.70;;;15.40;1.00;;;;;;4987600;28;20206;-75
2023/09/01 01:35:07;;;;;;;13.57;6.77;;;15.40;1.00;;;;;;4988330;28;20470;-78
2023/09/01 01:37:42;;;;;;;12.03;6.10;;;15.40;1.00;;;;;;4983478;28;20845;-78
2023/09/01 01:40:08;;;;;;;13.07;6.30;;;15.40;1.00;;;;;;4988416;28;20799;-78
2023/09/01 01:42:36;;;;;;;9.27;6.20;;;15.40;1.00;;;;;;4985425;28;20889;-78
2023/09/01 01:45:03;;;;;;;9.00;6.13;;;15.40;1.00;;;;;;4982576;28;20844;-78
2023/09/01 01:47:29;;;;;;;8.67;6.10;;;15.40;1.00;;;;;;4985736;28;20522;-78
2023/09/01 01:49:55;;;;;;;9.37;5.83;;;15.40;1.00;;;;;;4986778;28;20430;-79
2023/09/01 01:52:20;;;;;;;12.77;6.33;;;15.50;1.00;;;;;;4986200;28;20692;-79
2023/09/01 01:54:46;;;;;;;9.97;6.10;;;15.50;1.00;;;;;;4987512;28;20191;-78
2023/09/01 01:57:14;;;;;;;11.40;5.60;;;15.50;1.00;;;;;;4987782;28;20179;-77
2023/09/01 01:59:40;;;;;;;15.83;6.40;;;15.50;1.00;;;;;;4986939;28;20266;-77
2023/09/01 02:02:06;;;;;;;11.93;6.37;;;15.50;1.00;;;;;;4987765;28;20465;-78
2023/09/01 02:04:32;;;;;;;9.00;5.97;;;15.50;1.00;;;;;;4987205;28;20537;-77
2023/09/01 02:06:58;;;;;;;10.37;5.73;;;15.50;1.00;;;;;;4989154;28;20529;-78
2023/09/01 02:09:23;;;;;;;10.30;5.80;;;15.50;1.00;;;;;;4987748;28;20222;-78
2023/09/01 02:11:49;;;;;;;8.03;5.70;;;15.50;1.00;;;;;;4988208;28;20199;-77
2023/09/01 02:14:14;;;;;;;11.37;6.00;;;15.50;1.00;;;;;;4988089;28;20562;-77
2023/09/01 02:16:40;;;;;;;8.43;5.47;;;15.50;1.00;;;;;;4988873;28;20183;-79
2023/09/01 02:19:09;;;;;;;9.53;5.43;;;15.50;1.00;;;;;;4990584;28;20199;-78
2023/09/01 02:21:34;;;;;;;10.57;6.10;;;15.50;1.00;;;;;;4988344;28;20222;-77
2023/09/01 02:24:00;;;;;;;12.10;5.30;;;15.50;1.00;;;;;;4989498;28;20948;-79
2023/09/01 02:26:25;;;;;;;8.80;5.70;;;17.60;1.00;;;;;;4988358;28;20219;-77
2023/09/01 02:28:51;;;;;;;10.40;5.63;;;15.60;1.00;;;;;;4990142;28;20186;-78
2023/09/01 02:31:18;;;;;;;12.73;5.90;;;15.60;1.00;;;;;;4990206;28;20186;-76
2023/09/01 02:33:43;;;;;;;7.87;5.43;;;15.60;1.00;;;;;;4989693;28;20179;-75
2023/09/01 02:36:23;;;;;;;9.90;5.87;;;15.60;1.00;;;;;;4989856;28;20836;-77
2023/09/01 02:38:49;;;;;;;10.57;5.10;;;15.80;1.00;;;;;;4987707;28;20282;-77
2023/09/01 02:41:14;;;;;;;8.00;5.10;;;15.70;1.00;;;;;;4991893;28;20553;-77
2023/09/01 02:43:40;;;;;;;10.73;6.23;;;15.70;1.00;;;;;;4991524;28;20270;-77
2023/09/01 02:46:05;;;;;;;11.30;6.50;;;15.70;1.00;;;;;;4990632;28;20277;-77
2023/09/01 02:48:31;;;;;;;10.03;5.57;;;15.70;1.00;;;;;;4989955;28;20191;-78
2023/09/01 02:50:58;;;;;;;8.73;5.63;;;15.80;1.00;;;;;;4989906;28;20211;-77
2023/09/01 02:53:24;;;;;;;11.73;6.77;;;15.70;1.00;;;;;;4991486;28;20195;-77
2023/09/01 02:55:50;;;;;;;17.33;5.97;;;;;;;;;;4991187;28;20469;-78
2023/09/01 02:58:16;;;;;;;8.63;5.80;;;15.70;1.00;;;;;;4988226;28;20273;-78
2023/09/01 03:00:44;;;;;;;9.83;6.00;;;15.80;1.00;;;;;;4991312;28;20202;-76
2023/09/01 03:03:10;;;;;;;9.17;5.70;;;15.70;1.00;;;;;;4989036;28;20269;-78
2023/09/01 03:05:36;;;;;;;11.80;6.17;;;15.70;1.00;;;;;;5005888;28;20578;-77
2023/09/01 03:08:01;;;;;;;8.80;5.67;;;15.80;1.00;;;;;;4998420;28;20486;-77
2023/09/01 03:10:27;;;;;;;10.33;5.43;;;15.80;1.00;;;;;;4998661;28;20187;-77
2023/09/01 03:12:52;;;;;;;8.50;5.63;;;15.80;1.00;;;;;;5002414;28;20235;-77
2023/09/01 03:15:18;;;;;;;10.50;6.20;;;15.90;1.00;;;;;;5002807;28;20203;-77
2023/09/01 03:17:44;;;;;;;13.43;6.03;;;15.90;1.00;;;;;;5002382;28;20735;-78
2023/09/01 03:20:12;;;;;;;8.10;5.80;;;15.90;1.00;;;;;;5002290;28;20206;-78
2023/09/01 03:22:37;;;;;;;8.63;5.43;;;15.90;1.00;;;;;;5003077;28;20465;-76
2023/09/01 03:25:09;;;;;;;9.70;6.60;;;15.90;1.00;;;;;;5003250;28;20525;-77
2023/09/01 03:27:38;;;;;;;9.00;5.70;;;15.90;1.00;;;;;;5000936;28;20184;-78
2023/09/01 03:30:05;;;;;;;8.03;6.40;;;15.90;1.00;;;;;;5000441;28;20437;-77
2023/09/01 03:32:31;;;;;;;14.70;6.40;;;15.90;1.00;;;;;;5003062;28;20465;-78
2023/09/01 03:34:57;;;;;;;13.30;6.60;;;;;;;;;;4999165;28;20446;-77
2023/09/01 03:37:24;;;;;;;9.70;5.67;;;15.90;1.00;;;;;;5005383;28;20214;-76
2023/09/01 03:39:49;;;;;;;9.20;5.93;;;16.00;1.00;;;;;;5004474;28;20257;-77
2023/09/01 03:42:16;;;;;;;14.47;5.93;;;15.90;1.00;;;;;;5004260;28;21014;-77
2023/09/01 03:44:42;;;;;;;8.97;6.47;;;16.00;1.00;;;;;;5003909;28;20206;-77
2023/09/01 03:47:09;;;;;;;9.40;5.97;;;16.00;1.00;;;;;;5002378;28;20454;-76
2023/09/01 03:49:34;;;;;;;17.37;6.87;;;16.00;1.00;;;;;;5004734;28;20182;-77
2023/09/01 03:52:00;;;;;;;9.67;6.67;;;16.00;1.00;;;;;;5004942;28;20470;-76
2023/09/01 03:54:26;;;;;;;9.20;6.77;;;16.10;1.00;;;;;;5002126;28;20438;-77
2023/09/01 03:56:52;;;;;;;10.90;6.60;;;16.00;1.00;;;;;;5003780;28;20199;-75
2023/09/01 03:59:18;;;;;;;8.50;5.60;;;15.90;1.00;;;;;;5001224;28;20439;-76
2023/09/01 04:01:44;;;;;;;8.23;5.80;;;;;;;;;;5003938;28;20225;-76
2023/09/01 04:04:11;;;;;;;16.63;6.40;;;16.10;1.00;;;;;;5001641;28;20461;-77
2023/09/01 04:06:40;;;;;;;7.67;5.60;;;16.10;1.00;;;;;;4998502;28;20211;-77
2023/09/01 04:09:06;;;;;;;16.30;5.90;;;17.20;1.00;;;;;;5003393;28;20442;-77
2023/09/01 04:11:32;;;;;;;8.77;5.80;;;16.20;1.00;;;;;;5003953;28;20533;-77
2023/09/01 04:13:57;;;;;;;12.10;6.13;;;16.50;1.00;;;;;;5004837;28;20255;-76
2023/09/01 04:16:23;;;;;;;13.67;6.07;;;16.20;1.00;;;;;;5002922;28;20450;-75
2023/09/01 04:18:49;;;;;;;11.07;6.13;;;14.50;1.00;;;;;;4990469;28;20290;-76
2023/09/01 04:21:15;;;;;;;10.07;5.37;;;;;;;;;;4989012;28;20594;-76
2023/09/01 04:23:41;;;;;;;11.10;5.70;;;16.30;1.00;;;;;;4990587;28;20198;-74
2023/09/01 04:26:07;;;;;;;8.23;6.10;;;16.30;1.00;;;;;;4991447;28;20497;-75
2023/09/01 04:28:33;;;;;;;12.07;6.30;;;16.30;1.00;;;;;;4991871;28;20538;-76
2023/09/01 04:30:59;;;;;;;13.07;6.33;;;16.40;1.00;;;;;;4992021;28;20479;-76
2023/09/01 04:33:28;;;;;;;8.70;5.93;;;16.40;1.00;;;;;;4990271;28;20873;-76
2023/09/01 04:36:03;;;;;;;8.30;5.37;;;16.40;1.00;;;;;;4992109;28;20508;-77
2023/09/01 04:38:28;;;;;;;12.50;5.80;;;16.50;1.00;;;;;;4991745;28;20475;-75
2023/09/01 04:40:55;;;;;;;10.10;5.90;;;16.50;1.00;;;;;;4992039;28;21042;-76
2023/09/01 04:43:21;;;;;;;14.80;5.73;;;16.50;1.00;;;;;;4992358;28;20211;-76
2023/09/01 04:45:47;;;;;;;9.93;6.20;;;;;;;;;;4989102;28;20470;-75
2023/09/01 04:48:13;;;;;;;7.67;4.60;;;16.50;1.00;;;;;;4990764;28;20247;-75
2023/09/01 04:50:38;;;;;;;7.97;5.47;;;16.60;1.00;;;;;;4988317;28;20430;-77
2023/09/01 04:53:04;;;;;;;9.20;5.00;;;16.60;1.00;;;;;;4991025;28;20214;-76
2023/09/01 04:55:29;;;;;;;9.13;4.90;;;16.70;1.00;;;;;;4990793;28;20190;-76
2023/09/01 04:57:55;;;;;;;9.50;4.70;;;16.60;1.00;;;;;;4991972;28;20275;-76
2023/09/01 05:00:21;;;;;;;10.30;4.87;;;16.70;1.00;;;;;;4989188;28;20194;-75
2023/09/01 05:02:46;;;;;;;9.90;4.80;;;16.70;1.00;;;;;;4990529;28;20206;-75
2023/09/01 05:05:13;;;;;;;10.87;5.33;;;;;;;;;;4989382;28;20293;-76
2023/09/01 05:07:39;;;;;;;8.63;5.03;;;16.80;1.00;;;;;;4991738;28;20190;-75
2023/09/01 05:10:05;;;;;;;8.90;4.80;;;16.80;1.00;;;;;;4991348;28;20434;-75
2023/09/01 05:12:31;;;;;;;6.13;4.57;;;16.80;1.00;;;;;;5039983;22;20221;-73
2023/09/01 05:14:57;;;;;;;8.53;4.97;;;16.80;1.00;;;;;;5012460;28;20515;-73
2023/09/01 05:17:22;;;;;;;8.77;4.77;;;16.90;1.00;;;;;;5005293;28;20175;-73
2023/09/01 05:19:48;;;;;;;7.97;4.53;;;16.90;1.00;;;;;;5009989;28;20178;-73
2023/09/01 05:22:13;;;;;;;7.00;4.10;;;17.00;1.00;;;;;;5013456;28;20218;-73
2023/09/01 05:24:40;;;;;;;7.43;4.43;;;17.00;1.00;;;;;;5013191;28;20213;-73
2023/09/01 05:27:06;;;;;;;5.53;4.03;;;17.00;1.00;;;;;;5009941;28;20237;-74
2023/09/01 05:29:31;;;;;;;6.20;4.40;;;17.00;1.00;;;;;;5010933;28;21073;-73
2023/09/01 05:31:57;;;;;;;6.13;4.03;;;17.10;1.00;;;;;;5007173;28;20217;-73
2023/09/01 05:34:22;;;;;;;7.17;4.30;;;17.10;1.00;;;;;;5006695;28;20193;-74
2023/09/01 05:36:48;;;;;;;7.73;4.20;;;17.10;1.00;;;;;;5009933;28;20190;-73
2023/09/01 05:39:14;;;;;;;9.03;3.83;;;17.10;1.00;;;;;;5008244;28;20197;-73
2023/09/01 05:41:39;;;;;;;7.93;4.50;;;17.10;1.00;;;;;;5009324;28;20449;-73
2023/09/01 05:44:05;;;;;;;5.90;4.20;;;17.10;1.00;;;;;;5008700;28;20204;-73
2023/09/01 05:46:30;;;;;;;4.60;4.10;;;17.30;1.00;;;;;;5009259;28;20217;-73
2023/09/01 05:48:56;;;;;;;9.43;4.50;;;17.20;1.00;;;;;;5012959;28;20194;-73
2023/09/01 05:51:21;;;;;;;9.13;4.50;;;17.20;1.00;;;;;;5007998;28;20217;-73
2023/09/01 05:53:47;;;;;;;6.93;4.20;;;17.20;1.00;;;;;;5017881;28;20218;-73
2023/09/01 05:56:13;;;;;;;7.97;4.83;;;17.20;1.00;;;;;;5008206;28;20835;-73
2023/09/01 05:58:38;;;;;;;9.47;4.60;;;17.20;1.00;;;;;;5005410;28;20671;-73
2023/09/01 06:01:04;;;;;;;5.93;4.30;;;17.30;1.00;;;;;;5012159;28;20584;-72
2023/09/01 06:03:29;;;;;;;7.47;4.43;;;17.30;1.00;;;;;;5015065;28;20555;-72
2023/09/01 06:05:55;;;;;;;14.93;4.87;;;17.40;1.00;;;;;;5012283;28;20594;-73
2023/09/01 06:08:20;;;;;;;9.67;4.57;;;17.40;1.00;;;;;;5016199;28;20186;-73
2023/09/01 06:10:46;;;;;;;7.07;4.80;;;17.40;1.00;;;;;;5007317;28;20356;-72
2023/09/01 06:13:11;;;;;;;9.63;4.40;;;17.40;1.00;;;;;;5008872;28;20186;-73
2023/09/01 06:15:37;;;;;;;6.67;4.40;;;17.50;1.00;;;;;;5009699;28;20186;-73
2023/09/01 06:18:02;;;;;;;11.10;5.00;;;17.50;1.00;;;;;;5009212;28;20186;-73
2023/09/01 06:20:28;;;;;;;12.70;4.70;;;17.60;1.00;;;;;;5007903;28;20196;-73
2023/09/01 06:22:54;;;;;;;5.80;4.00;;;17.50;1.00;;;;;;5007447;28;20182;-72
2023/09/01 06:25:20;;;;;;;7.85;4.40;;;17.50;1.00;;;;;;5009029;28;20565;-73
2023/09/01 06:27:47;;;;;;;9.40;4.47;;;17.40;1.00;;;;;;5007778;28;20265;-73
2023/09/01 06:30:12;;;;;;;8.23;4.87;;;17.30;1.00;;;;;;5009290;28;20593;-74
2023/09/01 06:32:38;;;;;;;11.37;4.50;;;17.30;1.00;;;;;;5009593;28;20536;-74
2023/09/01 06:35:04;;;;;;;6.47;4.23;;;17.30;1.00;;;;;;5009349;28;20513;-74
2023/09/01 06:37:29;;;;;;;11.03;4.50;;;17.20;1.00;;;;;;5008372;28;20668;-74
2023/09/01 06:39:55;;;;;;;10.03;5.10;;;17.20;1.00;;;;;;5007717;28;20314;-74
2023/09/01 06:42:20;;;;;;;6.93;4.53;;;17.20;1.00;;;;;;5007962;28;20359;-74
2023/09/01 06:44:46;;;;;;;6.90;4.63;;;17.20;1.00;;;;;;5007889;28;20775;-74
2023/09/01 06:47:12;;;;;;;11.23;4.80;;;17.30;1.00;;;;;;5013950;28;20265;-74
2023/09/01 06:49:37;;;;;;;11.17;4.63;;;17.30;1.00;;;;;;5013551;28;20549;-74
2023/09/01 06:52:03;;;;;;;6.27;4.20;;;17.30;1.00;;;;;;5011658;28;20213;-74
2023/09/01 06:54:28;;;;;;;6.63;4.50;;;17.40;1.00;;;;;;5011906;28;20205;-74
2023/09/01 06:56:54;;;;;;;5.70;4.53;;;17.50;1.00;;;;;;5012940;28;20191;-74
2023/09/01 06:59:20;;;;;;;9.53;4.70;;;17.60;1.00;;;;;;5013019;28;20186;-74
2023/09/01 07:01:45;;;;;;;9.30;4.40;;;17.70;1.00;;;;;;5012698;28;20319;-73
2023/09/01 07:04:11;;;;;;;7.43;4.70;;;17.70;1.00;;;;;;5013096;28;20420;-74
2023/09/01 07:06:36;;;;;;;8.10;4.77;;;17.70;1.00;;;;;;5013181;28;20233;-74
2023/09/01 07:09:03;;;;;;;10.13;4.07;;;17.70;1.00;;;;;;5012647;28;20225;-74
2023/09/01 07:11:28;;;;;;;9.43;4.33;;;17.70;1.00;;;;;;5011370;28;20210;-73
2023/09/01 07:13:54;;;;;;;6.40;4.37;;;17.80;1.00;;;;;;5011098;28;20499;-73
2023/09/01 07:16:20;;;;;;;7.57;3.97;;;17.90;1.00;;;;;;5012893;28;20198;-74
2023/09/01 07:18:46;;;;;;;7.80;4.40;;;18.00;1.00;;;;;;5012371;28;20265;-73
2023/09/01 07:21:11;;;;;;;9.07;4.10;;;18.10;1.00;;;;;;5012768;28;20528;-73
2023/09/01 07:23:37;;;;;;;6.20;3.43;;;18.00;1.00;;;;;;5011162;28;20186;-73
2023/09/01 07:26:03;;;;;;;7.70;3.30;;;18.10;1.00;;;;;;5012502;28;20215;-73
2023/09/01 07:28:29;;;;;;;10.97;4.00;;;18.10;1.00;;;;;;5012775;28;20171;-73
2023/09/01 07:30:54;;;;;;;5.00;2.97;;;18.20;1.00;;;;;;5010854;28;20974;-73
2023/09/01 07:33:20;;;;;;;6.07;3.37;;;18.30;1.00;;;;;;5012322;28;20179;-74
2023/09/01 07:35:49;;;;;;;7.33;3.30;;;18.50;1.00;;;;;;5012918;28;20197;-72
2023/09/01 07:38:16;;;;;;;9.90;3.60;;;18.80;1.00;;;;;;5019822;28;20273;-73
2023/09/01 07:40:42;;;;;;;4.17;2.90;;;18.90;1.00;;;;;;5012111;28;20429;-73
2023/09/01 07:43:07;;;;;;;6.87;3.80;;;18.90;1.00;;;;;;5011736;28;20656;-73
2023/09/01 07:45:33;;;;;;;5.03;3.60;;;19.00;1.00;;;;;;5012203;28;20519;-73
2023/09/01 07:47:58;;;;;;;6.20;3.23;;;19.10;1.00;;;;;;5011729;28;20225;-73
2023/09/01 07:50:24;;;;;;;4.20;2.93;;;19.30;1.00;;;;;;5012300;28;20529;-73
2023/09/01 07:52:51;;;;;;;8.30;3.17;;;19.30;1.00;;;;;;5011690;28;20257;-72
2023/09/01 07:55:17;;;;;;;7.87;3.27;;;19.60;1.00;;;;;;5012010;28;20186;-73
2023/09/01 07:57:42;;;;;;;6.27;3.13;;;19.80;1.00;;;;;;5010927;28;20583;-72
2023/09/01 08:00:08;;;;;;;7.60;3.13;;;20.00;1.00;;;;;;5006212;28;20261;-73
2023/09/01 08:02:34;;;;;;;7.43;3.13;;;19.70;1.00;;;;;;5011991;28;20283;-73
2023/09/01 08:05:05;;;;;;;4.77;3.20;;;19.70;1.00;;;;;;5010183;28;20596;-73
2023/09/01 08:07:31;;;;;;;6.57;3.00;;;19.50;1.00;;;;;;5012077;28;20171;-73
2023/09/01 08:09:57;;;;;;;7.17;3.23;;;19.60;1.00;;;;;;5009672;28;20911;-73
2023/09/01 08:12:23;;;;;;;6.90;3.00;;;19.60;1.00;;;;;;5010317;28;20623;-73
2023/09/01 08:14:49;;;;;;;5.97;3.00;;;19.80;1.00;;;;;;5011547;28;20453;-73
2023/09/01 08:17:14;;;;;;;5.70;2.97;;;19.80;1.00;;;;;;5010106;28;20888;-73
2023/09/01 08:19:40;;;;;;;5.20;2.80;;;20.00;1.00;;;;;;5011331;28;20183;-72
2023/09/01 08:22:06;;;;;;;5.97;2.90;;;20.40;1.00;;;;;;5009501;28;20694;-73
2023/09/01 08:24:32;;;;;;;5.07;3.00;;;20.60;1.00;;;;;;5011172;28;20193;-73
2023/09/01 08:26:57;;;;;;;4.63;2.97;;;21.00;1.00;;;;;;5011059;28;20429;-72
2023/09/01 08:29:23;;;;;;;4.83;2.57;;;21.40;1.00;;;;;;5011250;28;20225;-73
2023/09/01 08:31:48;;;;;;;5.50;2.57;;;22.20;1.00;;;;;;5011223;28;20213;-73
2023/09/01 08:34:14;;;;;;;8.23;2.97;;;23.00;1.00;;;;;;5010996;28;20421;-73
2023/09/01 08:36:39;;;;;;;4.20;2.60;;;23.20;1.00;;;;;;5011568;28;20190;-73
2023/09/01 08:39:07;;;;;;;8.03;2.60;;;23.30;1.00;;;;;;5009255;28;20185;-73
2023/09/01 08:41:33;;;;;;;5.60;2.60;;;23.80;1.00;;;;;;5011123;28;20252;-73
2023/09/01 08:44:04;;;;;;;5.80;2.70;;;23.90;1.00;;;;;;5009488;28;20429;-73
2023/09/01 08:46:31;;;;;;;4.77;2.77;;;24.00;1.00;;;;;;5011096;28;20575;-73
2023/09/01 08:48:57;;;;;;;5.40;2.40;;;24.00;1.00;;;;;;5010658;28;20432;-73
2023/09/01 08:51:24;;;;;;;3.70;2.40;;;24.50;1.00;;;;;;5010956;28;20823;-73
2023/09/01 08:53:50;;;;;;;4.80;2.20;;;24.10;1.00;;;;;;5010695;28;20660;-73
2023/09/01 08:56:15;;;;;;;4.50;2.50;;;23.80;1.00;;;;;;5009434;28;20735;-73
2023/09/01 08:58:41;;;;;;;8.63;2.53;;;23.80;1.00;;;;;;5006646;28;20182;-73
2023/09/01 09:01:07;;;;;;;3.97;2.07;;;24.10;1.00;;;;;;5008728;28;20205;-73
2023/09/01 09:03:33;;;;;;;6.33;2.57;;;23.40;1.00;;;;;;5010514;28;20193;-73
2023/09/01 09:05:59;;;;;;;4.87;2.40;;;22.70;1.00;;;;;;5010035;28;20604;-73
2023/09/01 09:08:25;;;;;;;3.33;2.30;;;22.50;1.00;;;;;;5010172;28;20182;-73
2023/09/01 09:10:51;;;;;;;4.20;2.33;;;22.60;1.00;;;;;;5010532;28;20445;-73
2023/09/01 09:13:30;;;;;;;3.97;2.40;;;22.30;1.00;;;;;;5010075;28;20516;-73
2023/09/01 09:16:10;;;;;;;4.63;2.13;;;22.70;1.00;;;;;;5010248;28;20232;-73
2023/09/01 09:18:41;;;;;;;3.83;2.13;;;22.50;1.00;;;;;;5010386;28;20764;-73
2023/09/01 09:21:26;;;;;;;4.03;2.17;;;22.50;1.00;;;;;;5010157;28;20959;-73
2023/09/01 09:23:52;;;;;;;5.60;2.17;;;22.50;1.00;;;;;;5010327;28;20559;-73
2023/09/01 09:26:25;;;;;;;4.43;2.50;;;22.30;1.00;;;;;;5010048;28;20479;-73
2023/09/01 09:28:50;;;;;;;4.07;2.30;;;22.20;1.00;;;;;;5010339;28;20425;-73
2023/09/01 09:31:16;;;;;;;3.57;2.40;;;22.00;1.00;;;;;;5010315;28;20572;-73
2023/09/01 09:33:43;;;;;;;5.40;2.70;;;21.90;1.00;;;;;;5010108;28;20186;-73
2023/09/01 09:36:08;;;;;;;3.90;2.50;;;21.70;1.00;;;;;;5010194;28;20185;-73
2023/09/01 09:38:49;;;;;;;3.50;2.30;;;21.70;1.00;;;;;;5008790;28;20429;-73
2023/09/01 09:41:15;;;;;;;4.37;2.13;;;21.70;1.00;;;;;;5009876;28;20193;-73
2023/09/01 09:43:48;;;;;;;4.23;2.30;;;21.80;1.00;;;;;;5009773;28;20444;-73
2023/09/01 09:46:14;;;;;;;4.63;2.30;;;22.30;1.00;;;;;;5009922;28;20198;-73
2023/09/01 09:48:42;;;;;;;5.07;2.10;;;21.80;1.00;;;;;;5010090;28;20440;-74
2023/09/01 09:51:09;;;;;;;4.87;2.40;;;21.80;1.00;;;;;;5008347;28;20446;-74
2023/09/01 09:53:38;;;;;;;4.10;2.40;;;21.70;1.00;;;;;;5009860;28;20440;-74
2023/09/01 09:56:19;;;;;;;5.10;2.40;;;21.40;1.00;;;;;;5009994;28;20483;-74
2023/09/01 09:58:47;;;;;;;4.20;2.33;;;21.30;1.00;;;;;;5009639;28;20417;-74
2023/09/01 10:01:22;;;;;;;4.40;2.50;;;21.30;1.00;;;;;;5009456;28;20822;-74
2023/09/01 10:03:48;;;;;;;6.53;2.47;;;21.20;1.00;;;;;;5024751;28;20429;-74
2023/09/01 10:06:17;;;;;;;4.27;2.27;;;21.20;1.00;;;;;;5008302;28;21005;-74
2023/09/01 10:08:44;;;;;;;3.60;2.10;;;21.20;1.00;;;;;;5008522;28;20511;-74
2023/09/01 10:11:10;;;;;;;3.50;2.30;;;21.70;1.00;;;;;;5009311;28;20467;-74
2023/09/01 10:13:38;;;;;;;4.03;2.20;;;21.30;1.00;;;;;;5009565;28;20448;-74
2023/09/01 10:16:04;;;;;;;3.47;2.20;;;21.20;1.00;;;;;;5009287;28;20465;-74
2023/09/01 10:18:30;;;;;;;4.20;2.13;;;21.30;1.00;;;;;;5009725;28;20924;-74
2023/09/01 10:20:56;;;;;;;3.67;2.30;;;21.30;1.00;;;;;;5008907;28;20445;-74
2023/09/01 10:23:21;;;;;;;6.23;2.60;;;21.30;1.00;;;;;;5009085;28;20495;-75
2023/09/01 10:26:25;;;;;;;4.27;2.43;;;21.20;1.00;;;;;;5009859;28;20209;-75
2023/09/01 10:29:04;;;;;;;5.00;2.20;;;20.70;1.00;;;;;;5009228;28;20196;-75
2023/09/01 10:31:31;;;;;;;5.50;2.90;;;20.40;1.00;;;;;;5000494;28;20445;-74
2023/09/01 10:34:12;;;;;;;3.63;2.43;;;20.50;1.00;;;;;;5008008;28;20429;-75
2023/09/01 10:36:40;;;;;;;4.87;2.57;;;20.60;1.00;;;;;;5003113;28;20429;-74
2023/09/01 10:39:23;;;;;;;4.63;2.70;;;20.70;1.00;;;;;;5009231;28;20421;-75
2023/09/01 10:41:59;;;;;;;7.43;2.80;;;20.50;1.00;;;;;;5008117;28;20995;-75
2023/09/01 10:44:40;;;;;;;7.10;3.27;;;20.60;1.00;;;;;;5007974;28;20427;-75
2023/09/01 10:47:30;;;;;;;7.20;3.03;;;20.70;1.00;;;;;;5009514;28;20966;-74
2023/09/01 10:49:57;;;;;;;6.23;3.20;;;20.80;1.00;;;;;;5009959;28;20425;-74
2023/09/01 10:52:23;;;;;;;4.37;2.73;;;21.10;1.00;;;;;;5007541;28;20446;-74
2023/09/01 10:55:05;;;;;;;4.67;2.70;;;21.30;1.00;;;;;;5009514;28;20426;-74
2023/09/01 10:57:48;;;;;;;5.93;2.80;;;22.00;1.00;;;;;;5008302;28;20476;-74
2023/09/01 11:00:31;;;;;;;6.40;2.87;;;22.50;1.00;;;;;;5007521;28;20433;-74
2023/09/01 11:03:32;;;;;;;4.23;2.90;;;22.80;1.00;;;;;;5009190;28;20507;-74
2023/09/01 11:06:00;;;;;;;6.10;2.80;;;22.80;1.00;;;;;;5004925;28;20472;-74
2023/09/01 11:08:26;;;;;;;6.70;2.70;;;22.90;1.00;;;;;;5008814;28;20843;-74
2023/09/01 11:13:19;;;;;;;6.90;2.60;;;23.90;1.00;;;;;;5025416;28;20209;-75
2023/09/01 11:15:46;;;;;;;6.53;2.60;;;24.20;1.00;;;;;;5028245;28;20486;-74
2023/09/01 11:18:22;;;;;;;3.27;1.97;;;24.20;1.00;;;;;;5029058;28;20239;-75
2023/09/01 11:20:49;;;;;;;3.37;2.23;;;23.60;1.00;;;;;;5029976;28;20427;-74
2023/09/01 11:23:22;;;;;;;3.47;2.30;;;23.30;1.00;;;;;;5009588;28;20783;-74
2023/09/01 11:25:58;;;;;;;5.97;2.23;;;23.10;1.00;;;;;;5009570;28;20475;-73
2023/09/01 11:28:28;;;;;;;4.43;2.33;;;23.10;1.00;;;;;;5009626;28;20424;-73
2023/09/01 11:30:55;;;;;;;5.43;2.40;;;23.00;1.00;;;;;;5010205;28;20445;-74
2023/09/01 11:33:24;;;;;;;5.37;2.43;;;23.00;1.00;;;;;;5012469;28;20436;-73
2023/09/01 11:36:06;;;;;;;6.30;2.50;;;23.30;1.00;;;;;;5013282;28;20431;-73
2023/09/01 11:38:34;;;;;;;4.63;2.23;;;23.20;1.00;;;;;;5012670;28;20449;-73
2023/09/01 11:41:01;;;;;;;5.10;2.20;;;22.90;1.00;;;;;;5011661;28;20468;-74
2023/09/01 11:43:27;;;;;;;3.87;2.40;;;22.90;1.00;;;;;;5012420;28;20425;-73
2023/09/01 11:45:52;;;;;;;3.77;2.20;;;22.80;1.00;;;;;;5012809;28;20467;-73
2023/09/01 11:48:23;;;;;;;5.67;2.80;;;22.70;1.00;;;;;;5012489;28;20209;-73
2023/09/01 11:50:53;;;;;;;4.93;2.30;;;22.50;1.00;;;;;;5012668;28;20186;-73
2023/09/01 11:53:32;;;;;;;6.30;2.80;;;22.40;1.00;;;;;;5011035;28;20516;-73
2023/09/01 11:56:00;;;;;;;6.70;2.63;;;22.30;1.00;;;;;;5012756;28;20429;-74
2023/09/01 11:58:47;;;;;;;4.63;2.70;;;22.20;1.00;;;;;;5010810;28;20445;-73
2023/09/01 12:01:15;;;;;;;4.53;2.50;;;22.00;1.00;;;;;;4994357;28;20446;-75
2023/09/01 12:03:45;;;;;;;3.20;2.10;;;22.00;1.00;;;;;;5012369;28;20441;-74
2023/09/01 12:06:23;;;;;;;4.93;2.27;;;22.30;1.00;;;;;;5012142;28;20499;-74
2023/09/01 12:08:51;;;;;;;6.70;2.00;;;22.50;1.00;;;;;;5010790;28;20812;-74
2023/09/01 12:11:17;;;;;;;5.47;2.57;;;23.50;1.00;;;;;;5008359;28;20461;-73
2023/09/01 12:13:43;;;;;;;3.90;2.10;;;23.70;1.00;;;;;;5012029;28;20417;-74
2023/09/01 12:16:18;;;;;;;3.47;1.90;;;24.80;1.00;;;;;;5012476;28;20461;-74
2023/09/01 12:18:43;;;;;;;3.90;1.97;;;26.30;1.00;;;;;;5005228;28;20417;-74
2023/09/01 12:21:10;;;;;;;3.63;1.93;;;30.10;1.00;;;;;;5012304;28;20433;-74
2023/09/01 12:23:43;;;;;;;3.10;1.90;;;30.30;1.00;;;;;;5011813;28;20182;-74
2023/09/01 12:26:10;;;;;;;4.72;2.38;;;32.30;1.00;;;;;;5012135;28;20229;-73
2023/09/01 12:28:37;;;;;;;3.78;1.80;;;32.90;1.00;;;;;;5011838;28;20202;-74
2023/09/01 12:31:05;;;;;;;4.05;1.90;;;32.80;1.00;;;;;;5012015;28;20188;-73
2023/09/01 12:33:30;;;;;;;3.72;1.77;;;32.70;1.00;;;;;;5009345;28;20333;-74
2023/09/01 12:35:56;;;;;;;4.00;1.60;;;32.50;1.00;;;;;;5008411;28;20723;-73
2023/09/01 12:38:22;;;;;;;6.32;2.20;;;32.30;1.00;;;;;;5011958;28;20269;-74
2023/09/01 12:40:48;;;;;;;4.90;2.00;;;31.60;1.00;;;;;;5011822;28;20182;-74
2023/09/01 12:43:13;;;;;;;5.82;2.15;;;30.30;1.00;;;;;;5010972;28;20201;-73
2023/09/01 12:45:40;;;;;;;3.60;2.23;;;28.80;1.00;;;;;;5011968;28;20553;-74
2023/09/01 12:48:06;;;;;;;3.70;1.90;;;27.60;1.00;;;;;;5012162;28;20184;-74
2023/09/01 12:50:32;;;;;;;4.03;2.00;;;26.70;1.00;;;;;;5010372;28;20269;-74
2023/09/01 12:52:58;;;;;;;5.27;2.33;;;26.10;1.00;;;;;;5011432;28;20201;-74
2023/09/01 12:55:25;;;;;;;4.63;2.20;;;25.80;1.00;;;;;;5011287;28;20915;-75
2023/09/01 12:57:51;;;;;;;3.70;2.20;;;;;;;;;;5011790;28;20436;-74
2023/09/01 13:00:17;;;;;;;3.80;2.07;;;26.00;1.00;;;;;;5010522;28;20430;-74